Domov               UVHVVR             MKGP            O straneh              
ZDRAVSTVENO VARSTVO RASTLIN
  MREŽA AGROMET. POSTAJ
 ► PROGNOSTIČNA OBVESTILA
AGROMETEOROLOŠKI PODATKI -
ARSO
OBVLADOVANJE TVEGANJ ZARADI
NEUGODNIH VREMENSKIH RAZMER
  ► NARAVNE NESREČE
  ► SUŠA/MOČA
  ► NAMAKANJE
  ► ŽLED (gozdarstvo)
KARTOGRAFSKI PRIKAZI
SPLETNE POVEZAVE
PROJEKTI IN PUBLIKACIJE

AGROMETEOROLOŠKA MREŽA: VREMENSKE POSTAJE IN FENOLOŠKA OPAZOVANJA

Pregled podatkov za lokacijo Višnjevik, meteorološka postaja 857246

Pregled senzorjev na lokaciji

ID Ime Zadnja
vrednost
Datum
zadnje
spremembe
Tip
senzorja
3902 Temperatura 2 m ( °C) 16,87 °C 24.8.2017 04:45 50YA
3903 Relativna vlaga 2 m (% RH) 83,73 % RH 24.8.2017 04:45 50YA
3904 Omočenost lista (U) 0 U 24.8.2017 04:45 A730WET
3906 Padavine 0.2 mm (mm) 0 mm 24.8.2017 04:45 Rain-O-Matic

Pregled podatkov zadnjih 24 ur

Zap.
št.
Datum in čas Višnjevik
Omočenost
lista
Padavine
0.2
mm
Relativna
vlaga
2
m
Temperatura
2
m
0 24.8.2017 04:00 0 0 83,73 16,87
1 24.8.2017 03:30 0 0 81,83 17,34
2 24.8.2017 03:00 0 0 81,03 17,47
3 24.8.2017 02:30 0 0 80,57 17,63
4 24.8.2017 02:00 0 0 79,7 17,84
5 24.8.2017 01:30 0 0 78,71 18,01
6 24.8.2017 01:00 0 0 77,9 18,17
7 24.8.2017 00:30 0 0 77,53 18,21
8 24.8.2017 00:00 0 0 76,23 18,45
9 23.8.2017 23:30 0 0 75,95 18,55
10 23.8.2017 23:00 0 0 74,72 18,83
11 23.8.2017 22:30 0 0 73,46 19,12
12 23.8.2017 22:00 0 0 72,52 19,41
13 23.8.2017 21:30 0 0 71,09 19,7
14 23.8.2017 21:00 0 0 71,24 19,53
15 23.8.2017 20:30 0 0 72,11 19,56
16 23.8.2017 20:00 0 0 70,82 20,13
17 23.8.2017 19:30 0 0 69,59 20,74
18 23.8.2017 19:00 0 0 65,66 22,05
19 23.8.2017 18:30 0 0 60,12 24,02
20 23.8.2017 18:00 0 0 52,36 27,08
21 23.8.2017 17:30 0 0 50,95 27,74
22 23.8.2017 17:00 0 0 49,86 27,85
23 23.8.2017 16:30 0 0 49,77 28,07
24 23.8.2017 16:00 0 0 51,56 27,1
25 23.8.2017 15:30 0 0 57,16 24,86
26 23.8.2017 15:00 0 0 54,72 25,75
27 23.8.2017 14:30 0 0 54,47 26,13
28 23.8.2017 14:00 0 0 53,87 25,69
29 23.8.2017 13:30 0 0 52,48 26,34
30 23.8.2017 13:00 0 0 52,25 26,82
31 23.8.2017 12:30 0 0 51,23 26,24
32 23.8.2017 12:00 0 0 49,41 26,51
33 23.8.2017 11:30 0 0 49,73 26,5
34 23.8.2017 11:00 0 0 50,28 26,67
35 23.8.2017 10:30 0 0 51,39 26,12
36 23.8.2017 10:00 0 0 58,43 24,56
37 23.8.2017 09:30 0 0 62,46 22,59
38 23.8.2017 09:00 0 0 62,4 21,79
39 23.8.2017 08:30 0 0 63,59 21,06
40 23.8.2017 08:00 0 0 65,51 19,87
41 23.8.2017 07:30 0 0 72,93 17,05
42 23.8.2017 07:00 0 0 75,69 16,05
43 23.8.2017 06:30 0 0 78,47 15,41
44 23.8.2017 06:00 0 0 81,81 14,75
45 23.8.2017 05:30 0 0 82,46 14,61
© 2011 Ministrstvo za kmetijstvo, gozdarstvo in prehrano. Vse pravice pridržane.